Time;durP1;ratioP1;P1;durP2;ratioP2;P2;SDS_P1;SDS_P2;PMS_P1;PMS_P2;Temp;Humidity;BMP_temperature;BMP_pressure;BME280_temperature;BME280_humidity;BME280_pressure;Samples;Min_cycle;Max_cycle;Signal;HPM_P1;HPM_P2
2023/03/09 00:02:00;;;;;;;58.60;35.63;;;;;;;;;;5052831;28;20021;-75
2023/03/09 00:04:26;;;;;;;62.90;36.38;;;;;;;;;;5052171;28;20024;-73
2023/03/09 00:06:52;;;;;;;55.83;34.42;;;;;;;;;;5051717;28;20104;-72
2023/03/09 00:09:18;;;;;;;55.60;34.30;;;;;;;;;;5051408;28;20025;-73
2023/03/09 00:11:45;;;;;;;54.25;33.33;;;;;;;;;;5033389;28;20029;-72
2023/03/09 00:14:11;;;;;;;56.35;34.33;;;;;;;;;;5051431;28;20029;-74
2023/03/09 00:16:38;;;;;;;58.03;35.65;;;;;;;;;;5051186;28;20025;-76
2023/03/09 00:19:04;;;;;;;54.38;33.72;;;;;;;;;;5051815;28;20025;-73
2023/03/09 00:21:36;;;;;;;56.40;35.17;;;;;;;;;;5053505;28;20398;-73
2023/03/09 00:24:11;;;;;;;58.85;34.45;;;;;;;;;;5055868;28;20017;-73
2023/03/09 00:26:38;;;;;;;62.60;36.20;;;;;;;;;;5056213;28;20445;-74
2023/03/09 00:29:05;;;;;;;62.55;35.75;;;;;;;;;;5055135;28;20029;-73
2023/03/09 00:31:31;;;;;;;60.05;34.92;;;;;;;;;;5051939;28;20025;-73
2023/03/09 00:33:57;;;;;;;63.58;36.20;;;;;;;;;;5051542;28;20025;-74
2023/03/09 00:36:24;;;;;;;66.75;36.90;;;;;;;;;;5051364;28;20507;-73
2023/03/09 00:38:53;;;;;;;63.20;36.65;;;;;;;;;;5050909;28;20021;-76
2023/03/09 00:41:20;;;;;;;63.28;38.22;;;;;;;;;;5051344;28;20028;-73
2023/03/09 00:43:46;;;;;;;65.68;37.03;;;;;;;;;;5055584;28;20053;-73
2023/03/09 00:46:13;;;;;;;68.70;36.15;;;;;;;;;;5055217;28;20070;-73
2023/03/09 00:48:39;;;;;;;66.10;36.85;;;;;;;;;;5055201;28;20549;-73
2023/03/09 00:51:06;;;;;;;65.75;35.47;;;;;;;;;;5055261;28;20396;-73
2023/03/09 00:53:32;;;;;;;68.68;38.05;;;;;;;;;;5055211;28;20107;-73
2023/03/09 00:56:01;;;;;;;61.83;36.40;;;;;;;;;;5037257;28;20116;-73
2023/03/09 00:58:27;;;;;;;68.28;37.58;;;;;;;;;;5057284;28;20029;-74
2023/03/09 01:00:53;;;;;;;64.30;35.35;;;;;;;;;;5060796;28;20033;-74
2023/03/09 01:03:19;;;;;;;62.85;37.00;;;;;;;;;;5061487;28;20037;-74
2023/03/09 01:05:45;;;;;;;63.63;35.05;;;;;;;;;;5061301;28;20101;-74
2023/03/09 01:08:11;;;;;;;62.40;36.03;;;;;;;;;;5060666;28;20025;-74
2023/03/09 01:10:41;;;;;;;58.92;33.70;;;;;;;;;;5061754;28;20079;-74
2023/03/09 01:13:07;;;;;;;54.40;32.72;;;;;;;;;;5062032;28;20116;-75
2023/03/09 01:15:33;;;;;;;52.70;30.95;;;;;;;;;;5043300;28;20040;-74
2023/03/09 01:17:59;;;;;;;54.83;32.75;;;;;;;;;;5061530;28;20025;-75
2023/03/09 01:20:25;;;;;;;57.70;32.75;;;;;;;;;;5060821;28;20032;-74
2023/03/09 01:22:51;;;;;;;51.25;30.42;;;;;;;;;;5060799;28;20453;-73
2023/03/09 01:25:17;;;;;;;51.08;31.10;;;;;;;;;;5059260;28;20021;-75
2023/03/09 01:27:43;;;;;;;49.83;30.05;;;;;;;;;;5060245;28;20152;-76
2023/03/09 01:30:10;;;;;;;48.97;29.90;;;;;;;;;;5064489;28;20025;-75
2023/03/09 01:32:36;;;;;;;51.63;30.25;;;;;;;;;;5063987;28;20116;-75
2023/03/09 01:35:03;;;;;;;53.10;31.65;;;;;;;;;;5064700;28;20110;-75
2023/03/09 01:37:29;;;;;;;49.03;29.77;;;;;;;;;;5065488;28;20029;-75
2023/03/09 01:39:55;;;;;;;53.78;30.50;;;;;;;;;;5049144;28;20157;-75
2023/03/09 01:42:21;;;;;;;50.38;30.33;;;;;;;;;;5047117;28;20029;-74
2023/03/09 01:45:07;;;;;;;50.80;30.92;;;;;;;;;;5055696;28;20402;-74
2023/03/09 01:47:33;;;;;;;51.30;30.17;;;;;;;;;;5054149;28;20029;-74
2023/03/09 01:50:00;;;;;;;50.70;30.35;;;;;;;;;;5054272;28;20021;-75
2023/03/09 01:52:27;;;;;;;56.50;31.90;;;;;;;;;;5054130;28;20095;-77
2023/03/09 01:55:06;;;;;;;50.97;29.88;;;;;;;;;;5053272;28;20112;-74
2023/03/09 01:57:32;;;;;;;51.00;30.23;;;;;;;;;;5054132;28;20025;-76
2023/03/09 02:00:05;;;;;;;58.45;33.22;;;;;;;;;;5036351;28;20027;-78
2023/03/09 02:02:32;;;;;;;55.38;31.17;;;;;;;;;;5054432;28;20024;-74
2023/03/09 02:05:00;;;;;;;55.42;31.90;;;;;;;;;;5054487;28;20021;-77
2023/03/09 02:07:28;;;;;;;54.90;31.83;;;;;;;;;;5054048;28;20067;-74
2023/03/09 02:09:58;;;;;;;55.45;31.30;;;;;;;;;;5036300;28;20437;-74
2023/03/09 02:12:25;;;;;;;52.60;30.30;;;;;;;;;;5054121;28;20479;-74
2023/03/09 02:14:52;;;;;;;48.97;29.63;;;;;;;;;;5053854;28;20060;-74
2023/03/09 02:17:18;;;;;;;46.47;28.10;;;;;;;;;;5061508;28;20036;-74
2023/03/09 02:19:50;;;;;;;49.33;30.42;;;;;;;;;;5065193;28;20368;-73
2023/03/09 02:22:16;;;;;;;48.15;28.10;;;;;;;;;;5064500;28;20316;-74
2023/03/09 02:24:55;;;;;;;44.38;27.45;;;;;;;;;;5065886;28;20510;-73
2023/03/09 02:27:22;;;;;;;48.20;27.52;;;;;;;;;;5064087;28;20518;-74
2023/03/09 02:29:49;;;;;;;46.22;28.52;;;;;;;;;;5039883;28;20032;-74
2023/03/09 02:32:15;;;;;;;46.55;28.63;;;;;;;;;;5054175;28;20017;-76
2023/03/09 02:34:41;;;;;;;46.65;29.25;;;;;;;;;;5053631;28;20025;-74
2023/03/09 02:37:22;;;;;;;44.42;26.73;;;;;;;;;;5035558;28;20090;-73
2023/03/09 02:39:48;;;;;;;;;;;;;;;;;;5053958;28;20505;-73
2023/03/09 02:42:14;;;;;;;43.58;26.27;;;;;;;;;;5053439;28;19905;-74
2023/03/09 02:44:40;;;;;;;45.17;27.98;;;;;;;;;;5053157;28;20017;-74
2023/03/09 02:47:08;;;;;;;47.33;27.52;;;;;;;;;;5052842;28;20032;-78
2023/03/09 02:49:34;;;;;;;41.42;27.15;;;;;;;;;;5033374;28;20044;-74
2023/03/09 02:52:01;;;;;;;41.03;25.67;;;;;;;;;;5051786;28;20025;-74
2023/03/09 02:54:27;;;;;;;49.88;29.23;;;;;;;;;;5033890;28;20521;-74
2023/03/09 02:56:53;;;;;;;41.25;27.00;;;;;;;;;;5034926;28;20384;-74
2023/03/09 02:59:19;;;;;;;43.95;28.52;;;;;;;;;;5051593;28;20055;-74
2023/03/09 03:01:45;;;;;;;45.70;29.00;;;;;;;;;;5053026;28;20037;-74
2023/03/09 03:04:11;;;;;;;43.15;28.00;;;;;;;;;;5053052;28;20493;-74
2023/03/09 03:06:37;;;;;;;46.85;28.92;;;;;;;;;;5052823;28;20017;-74
2023/03/09 03:09:03;;;;;;;50.50;31.13;;;;;;;;;;5052605;28;20025;-74
2023/03/09 03:11:29;;;;;;;45.33;28.42;;;;;;;;;;5052755;28;20029;-74
2023/03/09 03:13:55;;;;;;;46.38;27.05;;;;;;;;;;5052601;28;20055;-74
2023/03/09 03:16:21;;;;;;;51.30;30.52;;;;;;;;;;5052891;28;20079;-74
2023/03/09 03:18:47;;;;;;;48.47;28.88;;;;;;;;;;5034672;28;20407;-74
2023/03/09 03:21:13;;;;;;;43.75;27.23;;;;;;;;;;5052705;28;20017;-73
2023/03/09 03:23:39;;;;;;;49.33;29.90;;;;;;;;;;5052554;28;20055;-74
2023/03/09 03:26:06;;;;;;;47.83;28.60;;;;;;;;;;5052125;28;20072;-75
2023/03/09 03:28:33;;;;;;;52.63;30.40;;;;;;;;;;5052143;28;20475;-74
2023/03/09 03:30:58;;;;;;;53.33;30.15;;;;;;;;;;5052340;28;20036;-73
2023/03/09 03:33:25;;;;;;;52.58;30.38;;;;;;;;;;5052407;28;20387;-74
2023/03/09 03:35:51;;;;;;;57.08;32.58;;;;;;;;;;5052057;28;20542;-74
2023/03/09 03:38:17;;;;;;;54.75;29.95;;;;;;;;;;5052129;28;20422;-74
2023/03/09 03:40:43;;;;;;;64.50;33.42;;;;;;;;;;5052028;28;20036;-78
2023/03/09 03:43:09;;;;;;;65.53;34.83;;;;;;;;;;5051947;28;20024;-76
2023/03/09 03:45:35;;;;;;;65.03;35.05;;;;;;;;;;5051639;28;20033;-74
2023/03/09 03:48:01;;;;;;;67.72;33.50;;;;;;;;;;5051475;28;20029;-77
2023/03/09 03:50:27;;;;;;;61.30;33.60;;;;;;;;;;5051701;28;20036;-74
2023/03/09 03:52:53;;;;;;;63.20;34.15;;;;;;;;;;5052079;28;20032;-74
2023/03/09 03:55:19;;;;;;;58.80;31.50;;;;;;;;;;5051581;28;20283;-74
2023/03/09 03:57:45;;;;;;;62.20;33.10;;;;;;;;;;5051654;28;20505;-74
2023/03/09 04:00:11;;;;;;;54.30;30.48;;;;;;;;;;5052115;28;20017;-74
2023/03/09 04:02:37;;;;;;;57.53;30.98;;;;;;;;;;5051950;28;20025;-74
2023/03/09 04:05:04;;;;;;;56.67;30.52;;;;;;;;;;5051725;28;20048;-75
2023/03/09 04:07:30;;;;;;;55.42;31.00;;;;;;;;;;5051501;28;20033;-75
2023/03/09 04:09:56;;;;;;;63.58;31.52;;;;;;;;;;5051587;28;20479;-75
2023/03/09 04:12:22;;;;;;;57.42;29.77;;;;;;;;;;5051679;28;20021;-75
2023/03/09 04:14:48;;;;;;;68.63;32.85;;;;;;;;;;5051853;28;20048;-75
2023/03/09 04:17:14;;;;;;;63.80;30.20;;;;;;;;;;5051010;28;20066;-74
2023/03/09 04:19:40;;;;;;;64.70;30.42;;;;;;;;;;5051710;28;20027;-74
2023/03/09 04:22:07;;;;;;;66.70;32.20;;;;;;;;;;5051565;28;20025;-74
2023/03/09 04:24:33;;;;;;;79.95;32.00;;;;;;;;;;5051554;28;20021;-74
2023/03/09 04:26:59;;;;;;;76.72;34.88;;;;;;;;;;5051254;28;20506;-74
2023/03/09 04:29:25;;;;;;;80.63;34.40;;;;;;;;;;5051451;28;20029;-73
2023/03/09 04:31:51;;;;;;;75.95;34.35;;;;;;;;;;5051492;28;20075;-73
2023/03/09 04:34:17;;;;;;;84.03;35.80;;;;;;;;;;5051760;28;20033;-73
2023/03/09 04:36:43;;;;;;;78.70;34.15;;;;;;;;;;5051602;28;20120;-73
2023/03/09 04:39:09;;;;;;;80.88;33.78;;;;;;;;;;5051216;28;20029;-74
2023/03/09 04:41:36;;;;;;;69.72;31.58;;;;;;;;;;5051587;28;20029;-74
2023/03/09 04:44:02;;;;;;;70.90;32.13;;;;;;;;;;5051409;28;20136;-74
2023/03/09 04:46:28;;;;;;;82.30;33.28;;;;;;;;;;5051243;28;20021;-73
2023/03/09 04:48:54;;;;;;;86.15;31.40;;;;;;;;;;5051059;28;20052;-74
2023/03/09 04:51:20;;;;;;;74.40;35.72;;;;;;;;;;5051357;28;20029;-74
2023/03/09 04:53:46;;;;;;;65.18;30.35;;;;;;;;;;5051067;28;20032;-74
2023/03/09 04:56:12;;;;;;;90.50;34.40;;;;;;;;;;5051262;28;20113;-74
2023/03/09 04:58:38;;;;;;;75.32;30.77;;;;;;;;;;5050851;28;20029;-74
2023/03/09 05:01:05;;;;;;;81.80;33.33;;;;;;;;;;5051461;28;20018;-74
2023/03/09 05:03:31;;;;;;;70.28;31.77;;;;;;;;;;5051489;28;20025;-74
2023/03/09 05:05:57;;;;;;;65.45;28.95;;;;;;;;;;5051107;28;20114;-75
2023/03/09 05:08:23;;;;;;;72.82;29.92;;;;;;;;;;5050758;28;20025;-75
2023/03/09 05:10:49;;;;;;;81.07;29.65;;;;;;;;;;5051019;28;20041;-75
2023/03/09 05:13:15;;;;;;;67.30;28.88;;;;;;;;;;5051223;28;20399;-75
2023/03/09 05:15:42;;;;;;;60.72;26.52;;;;;;;;;;5033155;28;20021;-75
2023/03/09 05:18:09;;;;;;;78.97;32.78;;;;;;;;;;5050726;28;20535;-75
2023/03/09 05:20:37;;;;;;;73.13;32.38;;;;;;;;;;5051383;28;20368;-77
2023/03/09 05:23:03;;;;;;;64.35;28.05;;;;;;;;;;5051551;28;20542;-75
2023/03/09 05:25:29;;;;;;;64.00;27.17;;;;;;;;;;5052042;28;20044;-75
2023/03/09 05:27:56;;;;;;;78.20;30.75;;;;;;;;;;5051520;28;20062;-78
2023/03/09 05:30:22;;;;;;;75.53;29.98;;;;;;;;;;5054274;28;20486;-75
2023/03/09 05:32:49;;;;;;;79.45;29.98;;;;;;;;;;5055596;28;20065;-75
2023/03/09 05:35:15;;;;;;;58.30;26.08;;;;;;;;;;5054763;28;20029;-72
2023/03/09 05:37:43;;;;;;;78.53;30.27;;;;;;;;;;5054438;28;20021;-72
2023/03/09 05:40:09;;;;;;;74.43;29.95;;;;;;;;;;5054680;28;20025;-72
2023/03/09 05:42:35;;;;;;;63.83;27.55;;;;;;;;;;5054735;28;20475;-74
2023/03/09 05:45:03;;;;;;;52.58;25.42;;;;;;;;;;5054068;28;20505;-73
2023/03/09 05:47:29;;;;;;;66.03;28.35;;;;;;;;;;5053991;28;20021;-74
2023/03/09 05:49:55;;;;;;;75.25;30.40;;;;;;;;;;5036255;28;20017;-73
2023/03/09 05:52:21;;;;;;;79.57;31.05;;;;;;;;;;5054220;28;20021;-73
2023/03/09 05:54:47;;;;;;;83.13;27.38;;;;;;;;;;5054016;28;20063;-71
2023/03/09 05:57:13;;;;;;;81.35;30.02;;;;;;;;;;5053714;28;20142;-74
2023/03/09 05:59:39;;;;;;;62.25;27.83;;;;;;;;;;5054451;28;20021;-74
2023/03/09 06:02:05;;;;;;;68.18;28.95;;;;;;;;;;5054177;28;20025;-74
2023/03/09 06:04:32;;;;;;;78.57;30.80;;;;;;;;;;5053781;28;20099;-73
2023/03/09 06:06:58;;;;;;;67.20;28.73;;;;;;;;;;5053867;28;20021;-78
2023/03/09 06:09:25;;;;;;;55.67;27.02;;;;;;;;;;5053539;28;20094;-73
2023/03/09 06:11:51;;;;;;;65.57;28.10;;;;;;;;;;5053741;28;20028;-73
2023/03/09 06:14:17;;;;;;;58.47;25.92;;;;;;;;;;5053969;28;20124;-75
2023/03/09 06:16:44;;;;;;;46.80;24.25;;;;;;;;;;5053237;28;20041;-74
2023/03/09 06:19:10;;;;;;;45.90;23.60;;;;;;;;;;5053292;28;20045;-74
2023/03/09 06:21:36;;;;;;;50.75;23.63;;;;;;;;;;5053580;28;20032;-73
2023/03/09 06:24:02;;;;;;;36.65;20.30;;;;;;;;;;5053823;28;20104;-74
2023/03/09 06:26:28;;;;;;;54.63;23.45;;;;;;;;;;5053393;28;20029;-74
2023/03/09 06:28:54;;;;;;;50.40;23.90;;;;;;;;;;5053412;28;20398;-74
2023/03/09 06:31:20;;;;;;;51.33;22.13;;;;;;;;;;5053555;28;20040;-75
2023/03/09 06:33:46;;;;;;;45.65;22.88;;;;;;;;;;5053371;28;20025;-73
2023/03/09 06:36:14;;;;;;;49.15;24.50;;;;;;;;;;5035076;28;20025;-75
2023/03/09 06:38:40;;;;;;;42.05;21.80;;;;;;;;;;5035082;28;20040;-73
2023/03/09 06:41:07;;;;;;;45.35;24.42;;;;;;;;;;5052963;28;20400;-72
2023/03/09 06:43:33;;;;;;;55.17;26.17;;;;;;;;;;5054298;28;20014;-73
2023/03/09 06:45:59;;;;;;;57.58;28.20;;;;;;;;;;5053002;28;20364;-77
2023/03/09 06:48:26;;;;;;;50.17;25.80;;;;;;;;;;5052343;28;20025;-74
2023/03/09 06:50:52;;;;;;;62.63;27.10;;;;;;;;;;5052969;28;20025;-74
2023/03/09 06:53:18;;;;;;;47.67;24.52;;;;;;;;;;5052982;28;20167;-76
2023/03/09 06:55:44;;;;;;;55.00;23.55;;;;;;;;;;5053121;28;20036;-75
2023/03/09 06:58:10;;;;;;;49.17;22.60;;;;;;;;;;5034480;28;20491;-75
2023/03/09 07:00:38;;;;;;;47.22;22.90;;;;;;;;;;5052822;28;20103;-75
2023/03/09 07:03:05;;;;;;;46.28;24.17;;;;;;;;;;5052688;28;20483;-73
2023/03/09 07:05:31;;;;;;;70.35;29.83;;;;;;;;;;5052934;28;20024;-74
2023/03/09 07:07:57;;;;;;;73.93;31.85;;;;;;;;;;5034762;28;20053;-73
2023/03/09 07:10:23;;;;;;;57.78;27.20;;;;;;;;;;5052612;28;20484;-72
2023/03/09 07:12:49;;;;;;;46.28;25.80;;;;;;;;;;5052463;28;20111;-74
2023/03/09 07:15:16;;;;;;;45.33;25.00;;;;;;;;;;5052524;28;20043;-71
2023/03/09 07:17:42;;;;;;;43.45;22.80;;;;;;;;;;5051288;28;20461;-72
2023/03/09 07:20:12;;;;;;;42.20;22.65;;;;;;;;;;5052417;28;20222;-73
2023/03/09 07:22:38;;;;;;;40.33;23.13;;;;;;;;;;5052311;28;20032;-73
2023/03/09 07:25:04;;;;;;;40.00;22.48;;;;;;;;;;5034566;28;20017;-73
2023/03/09 07:27:30;;;;;;;33.25;19.85;;;;;;;;;;5052027;28;20083;-73
2023/03/09 07:29:57;;;;;;;35.38;19.73;;;;;;;;;;5055505;28;20035;-73
2023/03/09 07:32:23;;;;;;;26.95;16.85;;;;;;;;;;5058811;28;20017;-75
2023/03/09 07:34:50;;;;;;;31.25;18.02;;;;;;;;;;5040604;28;20091;-75
2023/03/09 07:37:16;;;;;;;28.08;17.00;;;;;;;;;;5055226;28;20032;-74
2023/03/09 07:39:43;;;;;;;24.65;14.68;;;;;;;;;;5052106;28;20056;-74
2023/03/09 07:42:09;;;;;;;25.17;15.02;;;;;;;;;;5052046;28;20025;-73
2023/03/09 07:44:35;;;;;;;25.80;13.90;;;;;;;;;;5034312;28;20499;-74
2023/03/09 07:47:01;;;;;;;20.13;12.35;;;;;;;;;;5051886;28;20056;-74
2023/03/09 07:49:27;;;;;;;14.82;9.90;;;;;;;;;;5052050;28;20025;-74
2023/03/09 07:51:55;;;;;;;15.38;9.13;;;;;;;;;;5051470;28;20403;-74
2023/03/09 07:54:21;;;;;;;12.55;9.07;;;;;;;;;;5051766;28;20031;-74
2023/03/09 07:56:50;;;;;;;12.30;8.80;;;;;;;;;;5052283;28;20386;-72
2023/03/09 07:59:17;;;;;;;11.38;8.05;;;;;;;;;;5051213;28;20140;-73
2023/03/09 08:01:43;;;;;;;11.23;8.30;;;;;;;;;;5051679;28;20495;-73
2023/03/09 08:04:09;;;;;;;8.80;6.85;;;;;;;;;;5051758;28;20414;-72
2023/03/09 08:06:38;;;;;;;10.05;7.43;;;;;;;;;;5051508;28;20494;-74
2023/03/09 08:09:06;;;;;;;9.52;7.85;;;;;;;;;;5051375;28;20040;-74
2023/03/09 08:11:32;;;;;;;10.02;7.15;;;;;;;;;;5052070;28;20028;-73
2023/03/09 08:13:58;;;;;;;9.52;6.72;;;;;;;;;;5051461;28;20513;-73
2023/03/09 08:16:24;;;;;;;10.63;6.90;;;;;;;;;;5051608;28;20035;-75
2023/03/09 08:18:51;;;;;;;9.38;6.40;;;;;;;;;;5051159;28;20107;-73
2023/03/09 08:21:17;;;;;;;11.13;8.38;;;;;;;;;;5051624;28;20430;-74
2023/03/09 08:23:46;;;;;;;10.85;7.35;;;;;;;;;;5033743;28;20021;-73
2023/03/09 08:26:13;;;;;;;10.48;8.15;;;;;;;;;;5051179;28;20196;-73
2023/03/09 08:28:39;;;;;;;10.43;6.68;;;;;;;;;;5051078;28;20040;-74
2023/03/09 08:31:05;;;;;;;8.52;6.43;;;;;;;;;;5051467;28;20032;-74
2023/03/09 08:33:32;;;;;;;12.30;6.95;;;;;;;;;;5051399;28;20051;-74
2023/03/09 08:35:58;;;;;;;10.18;7.40;;;;;;;;;;5051231;28;20025;-72
2023/03/09 08:38:24;;;;;;;10.88;7.22;;;;;;;;;;5051490;28;20087;-73
2023/03/09 08:40:50;;;;;;;13.35;8.00;;;;;;;;;;5051763;28;20036;-73
2023/03/09 08:43:16;;;;;;;12.15;8.30;;;;;;;;;;5051218;28;20111;-71
2023/03/09 08:45:42;;;;;;;11.82;7.95;;;;;;;;;;5051246;28;20502;-71
2023/03/09 08:48:08;;;;;;;12.95;9.02;;;;;;;;;;5051091;28;20036;-72
2023/03/09 08:50:34;;;;;;;13.15;8.02;;;;;;;;;;5051303;28;20025;-72
2023/03/09 08:53:00;;;;;;;10.65;7.63;;;;;;;;;;5051160;28;20075;-70
2023/03/09 08:55:26;;;;;;;10.18;7.72;;;;;;;;;;5050792;28;20033;-72
2023/03/09 08:57:52;;;;;;;13.38;8.23;;;;;;;;;;5049571;28;20040;-73
2023/03/09 09:00:18;;;;;;;9.95;7.30;;;;;;;;;;5051018;28;20032;-73
2023/03/09 09:02:45;;;;;;;12.93;8.05;;;;;;;;;;5051003;28;20032;-73
2023/03/09 09:05:11;;;;;;;11.70;8.13;;;;;;;;;;5054449;28;20045;-73
2023/03/09 09:07:37;;;;;;;12.38;8.98;;;;;;;;;;5054801;28;20413;-71
2023/03/09 09:10:03;;;;;;;10.50;7.28;;;;;;;;;;5054800;28;20441;-72
2023/03/09 09:12:32;;;;;;;12.98;9.38;;;;;;;;;;5055352;28;20021;-73
2023/03/09 09:14:58;;;;;;;14.48;8.82;;;;;;;;;;5054795;28;20021;-74
2023/03/09 09:17:24;;;;;;;14.25;8.50;;;;;;;;;;5054767;28;20043;-73
2023/03/09 09:19:51;;;;;;;11.05;7.85;;;;;;;;;;5054796;28;20104;-74
2023/03/09 09:22:17;;;;;;;9.93;7.15;;;;;;;;;;5054831;28;20029;-73
2023/03/09 09:24:44;;;;;;;9.80;7.57;;;;;;;;;;5054628;28;20386;-74
2023/03/09 09:27:11;;;;;;;11.90;8.55;;;;;;;;;;5054957;28;20025;-73
2023/03/09 09:29:37;;;;;;;11.70;8.00;;;;;;;;;;5055922;28;20494;-73
2023/03/09 09:32:03;;;;;;;11.95;7.97;;;;;;;;;;5037575;28;20029;-73
2023/03/09 09:34:33;;;;;;;12.80;9.00;;;;;;;;;;5055648;28;20064;-72
2023/03/09 09:37:03;;;;;;;13.02;8.32;;;;;;;;;;5055128;28;20025;-73
2023/03/09 09:39:30;;;;;;;10.82;8.23;;;;;;;;;;5054477;28;20029;-73
2023/03/09 09:41:57;;;;;;;12.77;9.02;;;;;;;;;;5054549;28;20467;-73
2023/03/09 09:44:26;;;;;;;9.75;6.85;;;;;;;;;;5054307;28;20029;-74
2023/03/09 09:46:53;;;;;;;9.85;7.65;;;;;;;;;;5036427;28;20404;-74
2023/03/09 09:49:21;;;;;;;12.35;8.40;;;;;;;;;;5053939;28;20151;-74
2023/03/09 09:51:56;;;;;;;11.02;7.65;;;;;;;;;;5054345;28;20040;-74
2023/03/09 09:54:36;;;;;;;10.68;7.43;;;;;;;;;;5053987;28;20491;-74
2023/03/09 09:57:04;;;;;;;12.02;8.13;;;;;;;;;;5054016;28;20025;-74
2023/03/09 09:59:47;;;;;;;12.32;8.48;;;;;;;;;;5054008;28;20025;-74
2023/03/09 10:02:32;;;;;;;10.63;8.00;;;;;;;;;;5053967;28;20082;-76
2023/03/09 10:05:04;;;;;;;12.70;8.40;;;;;;;;;;5053826;28;20029;-74
2023/03/09 10:07:31;;;;;;;11.13;7.03;;;;;;;;;;5053844;28;20041;-75
2023/03/09 10:10:05;;;;;;;9.65;7.25;;;;;;;;;;5054120;28;20536;-74
2023/03/09 10:12:32;;;;;;;11.80;7.65;;;;;;;;;;5053909;28;20606;-74
2023/03/09 10:15:05;;;;;;;10.48;7.40;;;;;;;;;;5052837;28;20095;-73
2023/03/09 10:17:38;;;;;;;9.80;7.30;;;;;;;;;;5053239;28;20017;-74
2023/03/09 10:20:33;;;;;;;10.18;7.65;;;;;;;;;;5053540;28;20022;-74
2023/03/09 10:22:59;;;;;;;9.63;7.13;;;;;;;;;;5032256;28;20597;-73
2023/03/09 10:25:26;;;;;;;10.68;7.35;;;;;;;;;;5053326;28;20025;-73
2023/03/09 10:28:07;;;;;;;13.50;7.85;;;;;;;;;;5053580;28;20033;-74
2023/03/09 10:30:39;;;;;;;10.80;7.75;;;;;;;;;;5053588;28;20055;-72
2023/03/09 10:33:08;;;;;;;12.70;8.57;;;;;;;;;;5053393;28;20032;-75
2023/03/09 10:35:42;;;;;;;10.95;8.25;;;;;;;;;;5051912;28;20414;-74
2023/03/09 10:38:15;;;;;;;10.80;7.75;;;;;;;;;;5051479;28;20029;-75
2023/03/09 10:40:43;;;;;;;11.80;8.38;;;;;;;;;;5052817;28;20025;-74
2023/03/09 10:43:15;;;;;;;15.25;8.27;;;;;;;;;;5053031;28;20018;-73
2023/03/09 10:45:41;;;;;;;18.38;8.80;;;;;;;;;;5047956;28;20467;-72
2023/03/09 10:48:07;;;;;;;12.25;8.07;;;;;;;;;;5035392;28;20029;-74
2023/03/09 10:50:40;;;;;;;15.52;8.45;;;;;;;;;;5052390;28;20044;-74
2023/03/09 10:53:24;;;;;;;13.57;8.35;;;;;;;;;;5034013;28;20063;-74
2023/03/09 10:55:52;;;;;;;14.48;8.80;;;;;;;;;;5052363;28;20032;-75
2023/03/09 10:58:22;;;;;;;12.57;8.90;;;;;;;;;;5034176;28;20510;-75
2023/03/09 11:01:08;;;;;;;13.82;8.07;;;;;;;;;;5052568;28;20028;-75
2023/03/09 11:03:36;;;;;;;12.40;8.65;;;;;;;;;;5035339;28;20045;-76
2023/03/09 11:06:09;;;;;;;12.52;8.60;;;;;;;;;;5052670;28;20025;-75
2023/03/09 11:08:35;;;;;;;12.50;8.82;;;;;;;;;;5052618;28;20151;-74
2023/03/09 11:11:03;;;;;;;14.20;8.55;;;;;;;;;;5053043;28;20090;-73
2023/03/09 11:13:29;;;;;;;20.25;10.45;;;;;;;;;;5052810;28;20035;-76
2023/03/09 11:16:07;;;;;;;13.77;10.20;;;;;;;;;;5052427;28;20032;-74
2023/03/09 11:18:33;;;;;;;15.75;10.60;;;;;;;;;;5052414;28;20100;-75
2023/03/09 11:20:59;;;;;;;14.63;10.43;;;;;;;;;;5052724;28;20104;-75
2023/03/09 11:23:44;;;;;;;22.42;14.27;;;;;;;;;;5052437;28;20443;-74
2023/03/09 11:26:10;;;;;;;18.40;12.10;;;;;;;;;;5052191;28;20029;-73
2023/03/09 11:28:52;;;;;;;15.88;11.10;;;;;;;;;;5049256;28;20055;-73
2023/03/09 11:31:18;;;;;;;;;;;;;;;;;;5050834;28;20051;-74
2023/03/09 11:33:44;;;;;;;34.95;11.70;;;;;;;;;;5050385;28;20317;-74
2023/03/09 11:36:21;;;;;;;18.83;12.98;;;;;;;;;;5050349;28;20071;-73
2023/03/09 11:38:47;;;;;;;27.30;14.20;;;;;;;;;;5031973;28;20032;-74
2023/03/09 11:41:21;;;;;;;22.30;13.00;;;;;;;;;;5050447;28;20028;-76
2023/03/09 11:43:50;;;;;;;20.40;12.93;;;;;;;;;;5050624;28;20151;-74
2023/03/09 11:46:17;;;;;;;16.95;11.57;;;;;;;;;;5051855;28;20047;-76
2023/03/09 11:48:43;;;;;;;20.42;11.40;;;;;;;;;;5051879;28;20025;-74
2023/03/09 11:51:11;;;;;;;20.75;13.00;;;;;;;;;;5052073;28;20036;-74
2023/03/09 11:53:37;;;;;;;16.08;11.05;;;;;;;;;;5034039;28;20521;-73
2023/03/09 11:56:15;;;;;;;17.00;12.15;;;;;;;;;;5051772;28;20513;-71
2023/03/09 11:58:43;;;;;;;13.80;11.23;;;;;;;;;;5051550;28;20036;-76
2023/03/09 12:01:27;;;;;;;18.90;13.27;;;;;;;;;;5051925;28;20029;-75
2023/03/09 12:04:01;;;;;;;21.58;12.90;;;;;;;;;;5051741;28;20092;-73
2023/03/09 12:06:46;;;;;;;13.95;11.15;;;;;;;;;;5051525;28;20498;-73
2023/03/09 12:09:23;;;;;;;15.13;11.32;;;;;;;;;;5051356;28;20187;-75
2023/03/09 12:11:51;;;;;;;16.55;12.02;;;;;;;;;;5052205;28;20025;-73
2023/03/09 12:14:28;;;;;;;13.55;10.95;;;;;;;;;;5051410;28;20036;-73
2023/03/09 12:16:56;;;;;;;24.52;14.70;;;;;;;;;;5051534;28;20403;-73
2023/03/09 12:19:24;;;;;;;17.85;12.30;;;;;;;;;;5051079;28;20077;-74
2023/03/09 12:21:58;;;;;;;16.75;11.30;;;;;;;;;;5051561;28;20021;-73
2023/03/09 12:24:27;;;;;;;17.55;13.32;;;;;;;;;;5051703;28;20106;-74
2023/03/09 12:27:12;;;;;;;18.63;13.15;;;;;;;;;;5051256;28;20032;-74
2023/03/09 12:29:51;;;;;;;20.90;13.73;;;;;;;;;;5051421;28;20060;-73
2023/03/09 12:32:29;;;;;;;21.98;14.80;;;;;;;;;;5051543;28;20126;-73
2023/03/09 12:34:56;;;;;;;24.27;16.75;;;;;;;;;;5033006;28;20021;-74
2023/03/09 12:37:28;;;;;;;25.92;16.80;;;;;;;;;;5051273;28;20089;-74
2023/03/09 12:40:21;;;;;;;25.25;17.17;;;;;;;;;;5054625;28;20071;-74
2023/03/09 12:42:51;;;;;;;27.30;18.15;;;;;;;;;;5053049;28;20072;-74
2023/03/09 12:45:17;;;;;;;27.30;16.27;;;;;;;;;;5058354;28;20082;-72
2023/03/09 12:47:48;;;;;;;22.70;16.05;;;;;;;;;;5060120;28;20028;-73
2023/03/09 12:50:21;;;;;;;20.20;14.25;;;;;;;;;;5062835;28;20025;-74
2023/03/09 12:52:47;;;;;;;23.02;16.30;;;;;;;;;;5063297;28;20522;-73
2023/03/09 12:55:15;;;;;;;22.00;15.15;;;;;;;;;;5057626;28;20383;-75
2023/03/09 12:57:42;;;;;;;25.52;18.10;;;;;;;;;;5037204;28;20074;-75
2023/03/09 13:00:29;;;;;;;18.45;14.25;;;;;;;;;;5055406;28;20036;-74
2023/03/09 13:03:03;;;;;;;19.13;13.13;;;;;;;;;;5055504;28;20017;-74
2023/03/09 13:05:49;;;;;;;19.50;13.57;;;;;;;;;;5037239;28;20032;-75
2023/03/09 13:08:24;;;;;;;20.88;14.63;;;;;;;;;;5036886;28;20539;-75
2023/03/09 13:10:50;;;;;;;18.52;13.93;;;;;;;;;;5055321;28;20115;-75
2023/03/09 13:13:35;;;;;;;20.52;14.38;;;;;;;;;;5036998;28;20025;-74
2023/03/09 13:16:20;;;;;;;19.08;15.23;;;;;;;;;;5054609;28;20071;-75
2023/03/09 13:18:46;;;;;;;24.35;15.43;;;;;;;;;;5052651;28;20508;-74
2023/03/09 13:21:38;;;;;;;22.88;15.65;;;;;;;;;;5053705;28;20025;-72
2023/03/09 13:24:11;;;;;;;20.60;15.88;;;;;;;;;;5035556;28;20025;-73
2023/03/09 13:26:37;;;;;;;20.27;15.25;;;;;;;;;;5041344;28;20025;-73
2023/03/09 13:29:08;;;;;;;21.40;14.90;;;;;;;;;;5054300;28;20104;-74
2023/03/09 13:31:36;;;;;;;18.42;13.95;;;;;;;;;;5054374;28;20079;-71
2023/03/09 13:34:03;;;;;;;21.30;14.25;;;;;;;;;;5034515;28;20085;-74
2023/03/09 13:36:30;;;;;;;21.65;15.13;;;;;;;;;;5034514;28;20029;-73
2023/03/09 13:39:04;;;;;;;16.20;12.77;;;;;;;;;;5034368;28;20400;-73
2023/03/09 13:41:31;;;;;;;16.48;13.07;;;;;;;;;;5034281;28;20582;-75
2023/03/09 13:43:58;;;;;;;15.90;12.82;;;;;;;;;;5034394;28;20029;-75
2023/03/09 13:46:24;;;;;;;18.10;13.43;;;;;;;;;;5038262;28;20025;-74
2023/03/09 13:48:51;;;;;;;20.40;13.23;;;;;;;;;;5053988;28;20025;-74
2023/03/09 13:51:23;;;;;;;18.67;13.80;;;;;;;;;;5052934;28;20155;-76
2023/03/09 13:53:49;;;;;;;20.23;13.95;;;;;;;;;;5054232;28;20040;-73
2023/03/09 13:56:15;;;;;;;20.88;15.50;;;;;;;;;;5054036;28;20193;-72
2023/03/09 13:58:42;;;;;;;17.95;13.68;;;;;;;;;;5053542;28;20060;-74
2023/03/09 14:01:18;;;;;;;19.48;14.35;;;;;;;;;;5052985;28;20056;-74
2023/03/09 14:03:47;;;;;;;20.55;14.43;;;;;;;;;;5053640;28;20115;-74
2023/03/09 14:06:13;;;;;;;22.70;15.15;;;;;;;;;;5053770;28;20368;-76
2023/03/09 14:08:45;;;;;;;22.55;15.52;;;;;;;;;;5053374;28;20055;-74
2023/03/09 14:11:11;;;;;;;;;;;;;;;;;;5054140;28;20029;-74
2023/03/09 14:13:37;;;;;;;15.43;11.80;;;;;;;;;;5053660;28;19932;-74
2023/03/09 14:16:07;;;;;;;17.70;13.50;;;;;;;;;;5053559;28;20060;-74
2023/03/09 14:18:33;;;;;;;16.67;13.57;;;;;;;;;;5053665;28;20025;-74
2023/03/09 14:20:59;;;;;;;18.40;14.40;;;;;;;;;;5053656;28;20044;-74
2023/03/09 14:23:42;;;;;;;14.10;11.90;;;;;;;;;;5053568;28;20025;-74
2023/03/09 14:26:08;;;;;;;20.33;12.80;;;;;;;;;;5053335;28;20402;-74
2023/03/09 14:28:40;;;;;;;15.55;12.07;;;;;;;;;;5053268;28;20025;-73